Time;durP1;ratioP1;P1;durP2;ratioP2;P2;SDS_P1;SDS_P2;PMS_P1;PMS_P2;Temp;Humidity;BMP_temperature;BMP_pressure;BME280_temperature;BME280_humidity;BME280_pressure;Samples;Min_cycle;Max_cycle;Signal;HPM_P1;HPM_P2
2021/06/21 00:02:01;;;;;;;7.20;4.55;;;15.10;99.90;;;;;;5064062;28;20036;-68
2021/06/21 00:04:27;;;;;;;8.52;4.72;;;15.00;99.90;;;;;;5051648;28;20087;-68
2021/06/21 00:06:53;;;;;;;6.43;4.20;;;15.00;99.90;;;;;;5069939;28;20457;-68
2021/06/21 00:09:18;;;;;;;7.05;4.35;;;15.00;99.90;;;;;;5066825;28;20071;-68
2021/06/21 00:11:44;;;;;;;7.97;4.60;;;14.90;99.90;;;;;;5069001;28;20439;-68
2021/06/21 00:14:10;;;;;;;6.93;4.18;;;14.90;99.90;;;;;;5072301;28;20389;-68
2021/06/21 00:16:35;;;;;;;10.10;4.72;;;14.90;99.90;;;;;;5070389;28;20044;-68
2021/06/21 00:19:01;;;;;;;6.93;4.63;;;14.90;99.90;;;;;;5072270;28;20498;-69
2021/06/21 00:21:27;;;;;;;8.07;4.90;;;14.90;99.90;;;;;;5073702;28;20040;-69
2021/06/21 00:23:52;;;;;;;7.38;4.38;;;14.70;99.90;;;;;;5056238;28;20068;-69
2021/06/21 00:26:18;;;;;;;8.32;4.85;;;14.70;99.90;;;;;;5072889;28;20550;-69
2021/06/21 00:28:44;;;;;;;8.40;4.93;;;14.70;99.90;;;;;;5071913;28;20059;-69
2021/06/21 00:31:09;;;;;;;10.10;4.57;;;14.70;99.90;;;;;;5071126;28;20063;-69
2021/06/21 00:33:35;;;;;;;6.95;4.30;;;14.80;99.90;;;;;;5068869;28;20120;-69
2021/06/21 00:36:01;;;;;;;9.05;4.63;;;14.90;99.90;;;;;;5069153;28;20041;-69
2021/06/21 00:38:27;;;;;;;8.07;4.70;;;14.90;99.90;;;;;;5073690;28;20210;-69
2021/06/21 00:40:53;;;;;;;6.97;4.85;;;14.90;99.90;;;;;;5073241;28;20051;-69
2021/06/21 00:43:18;;;;;;;9.00;4.82;;;14.90;99.90;;;;;;5073665;28;20037;-69
2021/06/21 00:45:44;;;;;;;7.30;5.10;;;14.90;99.90;;;;;;5076754;28;20036;-69
2021/06/21 00:48:10;;;;;;;5.95;4.90;;;15.00;99.90;;;;;;5071983;28;20045;-69
2021/06/21 00:50:35;;;;;;;7.15;4.22;;;14.90;99.90;;;;;;5071713;28;20036;-69
2021/06/21 00:53:01;;;;;;;6.07;4.45;;;14.90;99.90;;;;;;5073691;28;20032;-69
2021/06/21 00:55:28;;;;;;;6.15;4.43;;;14.80;99.90;;;;;;5073251;28;20048;-69
2021/06/21 00:57:54;;;;;;;7.60;4.65;;;14.90;99.90;;;;;;5073385;28;20486;-69
2021/06/21 01:00:23;;;;;;;7.07;4.13;;;14.80;99.90;;;;;;5073344;28;20090;-69
2021/06/21 01:02:49;;;;;;;8.70;4.50;;;14.80;99.90;;;;;;5073587;28;20386;-69
2021/06/21 01:05:17;;;;;;;9.27;4.45;;;14.70;99.90;;;;;;5073262;28;20048;-69
2021/06/21 01:07:43;;;;;;;6.95;4.18;;;14.70;99.90;;;;;;5072310;28;20032;-69
2021/06/21 01:10:10;;;;;;;6.35;4.30;;;14.70;99.90;;;;;;5073275;28;20119;-69
2021/06/21 01:12:48;;;;;;;5.70;3.80;;;14.80;99.90;;;;;;5065114;28;20040;-69
2021/06/21 01:15:16;;;;;;;7.57;4.00;;;14.70;99.90;;;;;;5056692;28;20040;-69
2021/06/21 01:17:51;;;;;;;5.47;3.50;;;14.60;99.90;;;;;;5072153;28;20060;-69
2021/06/21 01:20:57;;;;;;;6.15;3.70;;;14.70;99.90;;;;;;5072250;28;20035;-69
2021/06/21 01:24:04;;;;;;;6.00;4.00;;;14.60;99.90;;;;;;5090666;28;20595;-68
2021/06/21 01:26:46;;;;;;;5.38;3.78;;;14.60;99.90;;;;;;5066155;28;20029;-68
2021/06/21 01:29:36;;;;;;;4.78;3.75;;;14.70;99.90;;;;;;5070862;28;20139;-68
2021/06/21 01:32:08;;;;;;;6.20;3.63;;;14.60;99.90;;;;;;5054363;28;20037;-68
2021/06/21 01:34:34;;;;;;;;;;;14.60;99.90;;;;;;5070169;28;20045;-68
2021/06/21 01:37:02;;;;;;;5.15;4.13;;;14.50;99.90;;;;;;5072311;28;19920;-68
2021/06/21 01:39:32;;;;;;;8.02;3.95;;;14.60;99.90;;;;;;5072250;28;20040;-68
2021/06/21 01:42:08;;;;;;;4.80;4.00;;;14.60;99.90;;;;;;5072092;28;20032;-68
2021/06/21 01:44:41;;;;;;;6.03;4.18;;;14.70;99.90;;;;;;5071725;28;20081;-68
2021/06/21 01:47:08;;;;;;;7.90;4.18;;;14.60;99.90;;;;;;5064029;28;20036;-68
2021/06/21 01:49:40;;;;;;;7.57;4.72;;;14.70;99.90;;;;;;5072777;28;20040;-68
2021/06/21 01:52:10;;;;;;;6.38;4.07;;;14.70;99.90;;;;;;5072252;28;20044;-68
2021/06/21 01:54:38;;;;;;;5.43;4.30;;;14.70;99.90;;;;;;5072314;28;20040;-68
2021/06/21 01:57:06;;;;;;;7.13;4.57;;;14.70;99.90;;;;;;5072931;28;20123;-68
2021/06/21 01:59:32;;;;;;;7.90;4.10;;;14.60;99.90;;;;;;5054390;28;20064;-68
2021/06/21 02:02:00;;;;;;;5.85;3.90;;;14.50;99.90;;;;;;5070072;28;20712;-68
2021/06/21 02:04:29;;;;;;;4.18;3.72;;;14.50;99.90;;;;;;5072393;28;20051;-68
2021/06/21 02:06:56;;;;;;;4.82;3.22;;;14.50;99.90;;;;;;5072457;28;20036;-68
2021/06/21 02:09:24;;;;;;;5.78;2.78;;;14.60;99.90;;;;;;5069005;28;20029;-68
2021/06/21 02:11:52;;;;;;;7.63;3.67;;;14.50;99.90;;;;;;5064259;28;20081;-68
2021/06/21 02:14:26;;;;;;;5.95;3.40;;;14.50;99.90;;;;;;5071419;28;20505;-68
2021/06/21 02:16:53;;;;;;;5.53;2.72;;;14.40;99.90;;;;;;5072191;28;20111;-68
2021/06/21 02:19:22;;;;;;;5.25;2.80;;;14.30;99.90;;;;;;5068608;28;20450;-68
2021/06/21 02:21:49;;;;;;;3.10;2.58;;;14.20;99.90;;;;;;5053960;28;20040;-68
2021/06/21 02:24:17;;;;;;;5.05;2.67;;;14.20;99.90;;;;;;5054020;28;20111;-68
2021/06/21 02:26:45;;;;;;;4.10;2.83;;;14.20;99.90;;;;;;5054275;28;20041;-68
2021/06/21 02:29:12;;;;;;;3.65;2.72;;;14.20;99.90;;;;;;5065127;28;20033;-68
2021/06/21 02:31:38;;;;;;;5.10;3.10;;;14.10;99.90;;;;;;5069645;28;20039;-68
2021/06/21 02:34:04;;;;;;;3.97;2.67;;;14.10;99.90;;;;;;5071456;28;20040;-68
2021/06/21 02:36:30;;;;;;;5.60;3.22;;;14.00;99.90;;;;;;5068447;28;20467;-68
2021/06/21 02:38:58;;;;;;;8.30;3.40;;;13.90;99.90;;;;;;5071496;28;20055;-68
2021/06/21 02:41:24;;;;;;;4.47;3.70;;;13.90;99.90;;;;;;5072031;28;20040;-68
2021/06/21 02:43:50;;;;;;;6.00;4.47;;;13.80;99.90;;;;;;5071795;28;20048;-68
2021/06/21 02:46:16;;;;;;;7.40;4.32;;;13.70;99.90;;;;;;5066704;28;20048;-68
2021/06/21 02:48:42;;;;;;;8.95;4.93;;;13.60;99.90;;;;;;5072157;28;20090;-68
2021/06/21 02:51:15;;;;;;;4.43;4.03;;;13.60;99.90;;;;;;5071105;28;20032;-68
2021/06/21 02:53:52;;;;;;;5.63;4.90;;;13.60;99.90;;;;;;5070808;28;20054;-67
2021/06/21 02:56:30;;;;;;;8.68;5.05;;;13.50;99.90;;;;;;5067009;28;20045;-67
2021/06/21 02:59:14;;;;;;;9.88;5.45;;;13.50;99.90;;;;;;5071817;28;20072;-67
2021/06/21 03:01:52;;;;;;;10.02;6.60;;;13.40;99.90;;;;;;5071671;28;20040;-67
2021/06/21 03:04:21;;;;;;;7.97;6.28;;;13.50;99.90;;;;;;5071891;28;20041;-67
2021/06/21 03:06:49;;;;;;;8.30;6.90;;;13.40;99.90;;;;;;5071643;28;20028;-67
2021/06/21 03:09:18;;;;;;;9.68;7.40;;;13.40;99.90;;;;;;5071717;28;20107;-67
2021/06/21 03:11:44;;;;;;;11.50;7.75;;;13.40;99.90;;;;;;5062801;28;20181;-67
2021/06/21 03:14:10;;;;;;;10.00;8.38;;;13.40;99.90;;;;;;5065064;28;20107;-67
2021/06/21 03:16:37;;;;;;;13.73;8.50;;;13.40;99.90;;;;;;5070884;28;20498;-67
2021/06/21 03:19:03;;;;;;;14.02;9.27;;;13.40;99.90;;;;;;5053991;28;20071;-67
2021/06/21 03:21:29;;;;;;;11.30;8.65;;;13.40;99.90;;;;;;5071520;28;20060;-67
2021/06/21 03:23:56;;;;;;;10.27;8.90;;;13.40;99.90;;;;;;5071337;28;20119;-67
2021/06/21 03:26:27;;;;;;;13.38;8.70;;;13.40;99.90;;;;;;5068853;28;20127;-67
2021/06/21 03:28:54;;;;;;;15.07;9.43;;;13.40;99.90;;;;;;5070122;28;20040;-67
2021/06/21 03:31:21;;;;;;;16.13;9.02;;;13.40;99.90;;;;;;5068054;28;20287;-67
2021/06/21 03:33:47;;;;;;;8.98;8.05;;;13.50;99.90;;;;;;5048874;28;20037;-67
2021/06/21 03:36:13;;;;;;;13.60;8.65;;;13.40;99.90;;;;;;5054287;28;20047;-67
2021/06/21 03:38:39;;;;;;;12.45;8.60;;;13.40;99.90;;;;;;5070729;28;20041;-67
2021/06/21 03:41:05;;;;;;;11.80;7.97;;;13.40;99.90;;;;;;5070360;28;20075;-67
2021/06/21 03:43:33;;;;;;;12.40;8.10;;;13.50;99.90;;;;;;5065284;28;20324;-67
2021/06/21 03:46:03;;;;;;;10.93;8.10;;;13.50;99.90;;;;;;5075418;28;20040;-67
2021/06/21 03:48:29;;;;;;;14.43;7.88;;;13.50;99.90;;;;;;5069928;28;20032;-68
2021/06/21 03:50:56;;;;;;;10.82;7.82;;;13.50;99.90;;;;;;5070051;28;20051;-68
2021/06/21 03:53:22;;;;;;;9.95;7.07;;;13.60;99.90;;;;;;5064908;28;20075;-68
2021/06/21 03:55:48;;;;;;;9.43;6.60;;;13.60;99.90;;;;;;5063348;28;20056;-68
2021/06/21 03:58:15;;;;;;;8.90;6.88;;;13.60;99.90;;;;;;5069609;28;20041;-68
2021/06/21 04:00:41;;;;;;;11.10;6.00;;;13.50;99.90;;;;;;5070553;28;20374;-68
2021/06/21 04:03:07;;;;;;;10.35;5.90;;;13.50;99.90;;;;;;5070757;28;20044;-68
2021/06/21 04:05:36;;;;;;;10.15;5.63;;;13.50;99.90;;;;;;5067826;28;20171;-68
2021/06/21 04:08:04;;;;;;;16.50;5.85;;;13.50;99.90;;;;;;5063685;28;20040;-68
2021/06/21 04:10:29;;;;;;;8.43;5.75;;;13.40;99.90;;;;;;5070859;28;20117;-67
2021/06/21 04:12:55;;;;;;;10.45;5.35;;;13.40;99.90;;;;;;5069162;28;20800;-67
2021/06/21 04:15:30;;;;;;;9.40;5.32;;;13.40;99.90;;;;;;5068975;28;20463;-68
2021/06/21 04:18:04;;;;;;;18.65;6.30;;;13.30;99.90;;;;;;5070226;28;20120;-68
2021/06/21 04:20:31;;;;;;;12.90;6.05;;;13.30;99.90;;;;;;5073295;28;20043;-68
2021/06/21 04:22:57;;;;;;;9.18;5.75;;;13.30;99.90;;;;;;5073329;28;20535;-68
2021/06/21 04:25:24;;;;;;;10.18;5.85;;;13.30;99.90;;;;;;5071653;28;20036;-68
2021/06/21 04:27:51;;;;;;;7.55;6.03;;;13.20;99.90;;;;;;5053825;28;20486;-68
2021/06/21 04:30:19;;;;;;;11.32;6.20;;;13.10;99.90;;;;;;5054215;28;20033;-68
2021/06/21 04:32:45;;;;;;;9.68;6.57;;;13.10;99.90;;;;;;5071819;28;20490;-68
2021/06/21 04:35:14;;;;;;;10.55;6.22;;;13.10;99.90;;;;;;5072153;28;20292;-68
2021/06/21 04:37:40;;;;;;;12.95;6.70;;;13.10;99.90;;;;;;5072411;28;20028;-68
2021/06/21 04:40:07;;;;;;;13.07;6.78;;;13.10;99.90;;;;;;5072565;28;20116;-68
2021/06/21 04:42:34;;;;;;;9.80;5.82;;;13.10;99.90;;;;;;5072238;28;20437;-68
2021/06/21 04:45:00;;;;;;;10.13;6.82;;;13.10;99.90;;;;;;5072281;28;20123;-68
2021/06/21 04:47:26;;;;;;;12.10;8.30;;;13.10;99.90;;;;;;5072530;28;20043;-68
2021/06/21 04:49:56;;;;;;;12.57;8.35;;;13.10;99.90;;;;;;5071508;28;20387;-68
2021/06/21 04:52:24;;;;;;;15.52;8.70;;;13.10;99.90;;;;;;5054502;28;20037;-68
2021/06/21 04:54:51;;;;;;;11.70;9.60;;;13.10;99.90;;;;;;5054196;28;20045;-68
2021/06/21 04:57:16;;;;;;;14.00;8.23;;;13.20;99.90;;;;;;5054411;28;20047;-68
2021/06/21 04:59:43;;;;;;;13.77;8.82;;;13.20;99.90;;;;;;5074024;28;20117;-68
2021/06/21 05:02:09;;;;;;;11.48;8.68;;;13.20;99.90;;;;;;5075407;28;20032;-68
2021/06/21 05:04:34;;;;;;;12.25;9.05;;;13.20;99.90;;;;;;5075949;28;20351;-68
2021/06/21 05:07:02;;;;;;;15.23;9.43;;;13.20;99.90;;;;;;5075172;28;20040;-68
2021/06/21 05:09:28;;;;;;;12.75;8.38;;;13.20;99.90;;;;;;5075085;28;20029;-68
2021/06/21 05:11:53;;;;;;;14.45;9.38;;;13.20;99.90;;;;;;5074742;28;20040;-68
2021/06/21 05:14:19;;;;;;;12.63;9.15;;;13.20;99.90;;;;;;5074594;28;20085;-68
2021/06/21 05:16:45;;;;;;;11.00;8.77;;;13.20;99.90;;;;;;5074144;28;20041;-68
2021/06/21 05:19:10;;;;;;;13.15;8.80;;;13.20;99.90;;;;;;5072510;28;20500;-69
2021/06/21 05:21:36;;;;;;;12.90;9.35;;;13.30;99.90;;;;;;5074332;28;20060;-68
2021/06/21 05:24:03;;;;;;;11.52;8.15;;;13.30;99.90;;;;;;5073265;28;20044;-68
2021/06/21 05:26:29;;;;;;;14.10;8.93;;;13.30;99.90;;;;;;5074865;28;20044;-68
2021/06/21 05:28:54;;;;;;;15.65;9.93;;;13.30;99.90;;;;;;5074016;28;20043;-68
2021/06/21 05:31:20;;;;;;;15.88;9.70;;;13.40;99.90;;;;;;5074358;28;20037;-68
2021/06/21 05:33:47;;;;;;;14.80;8.38;;;13.40;99.90;;;;;;5074531;28;20654;-68
2021/06/21 05:36:12;;;;;;;14.98;8.52;;;13.40;99.90;;;;;;5073527;28;20496;-69
2021/06/21 05:38:38;;;;;;;11.45;7.93;;;13.30;99.90;;;;;;5074513;28;20033;-68
2021/06/21 05:41:04;;;;;;;13.60;7.97;;;13.30;99.90;;;;;;5074140;28;20072;-68
2021/06/21 05:43:30;;;;;;;13.75;8.13;;;13.40;99.90;;;;;;5073347;28;20040;-68
2021/06/21 05:45:56;;;;;;;14.68;9.68;;;13.30;99.90;;;;;;5074094;28;20105;-68
2021/06/21 05:48:21;;;;;;;15.50;8.93;;;13.30;99.90;;;;;;5074064;28;20040;-70
2021/06/21 05:50:47;;;;;;;14.32;8.05;;;13.40;99.90;;;;;;5072697;28;20037;-69
2021/06/21 05:53:13;;;;;;;13.93;8.18;;;13.40;99.90;;;;;;5072628;28;20033;-70
2021/06/21 05:55:39;;;;;;;15.30;9.13;;;13.30;99.90;;;;;;5063980;28;20048;-69
2021/06/21 05:58:04;;;;;;;15.80;8.60;;;13.30;99.90;;;;;;5069445;28;20466;-70
2021/06/21 06:00:30;;;;;;;12.50;7.82;;;13.40;99.90;;;;;;5073207;28;20467;-69
2021/06/21 06:02:56;;;;;;;11.07;7.80;;;13.30;99.90;;;;;;5068195;28;20032;-70
2021/06/21 06:05:22;;;;;;;9.95;7.60;;;13.40;99.90;;;;;;5050950;28;20090;-70
2021/06/21 06:07:48;;;;;;;12.13;7.70;;;13.40;99.90;;;;;;5057663;28;20111;-69
2021/06/21 06:10:14;;;;;;;14.25;7.55;;;13.40;99.90;;;;;;5063241;28;20056;-70
2021/06/21 06:12:40;;;;;;;12.40;7.07;;;13.40;99.90;;;;;;5053077;28;20043;-69
2021/06/21 06:15:07;;;;;;;10.90;6.65;;;13.40;99.90;;;;;;5072591;28;20059;-69
2021/06/21 06:17:33;;;;;;;9.70;7.20;;;13.40;99.90;;;;;;5073477;28;20041;-69
2021/06/21 06:19:59;;;;;;;8.90;6.78;;;13.40;99.90;;;;;;5074496;28;20113;-69
2021/06/21 06:22:25;;;;;;;8.93;6.20;;;13.40;99.90;;;;;;5074018;28;20037;-69
2021/06/21 06:24:50;;;;;;;10.40;6.25;;;13.40;99.90;;;;;;5073912;28;20043;-69
2021/06/21 06:27:16;;;;;;;13.23;6.63;;;13.40;99.90;;;;;;5073694;28;20041;-69
2021/06/21 06:29:42;;;;;;;14.82;7.38;;;13.50;99.90;;;;;;5073275;28;20044;-69
2021/06/21 06:32:07;;;;;;;11.02;6.40;;;13.50;99.90;;;;;;5073343;28;20037;-69
2021/06/21 06:34:34;;;;;;;10.77;6.75;;;13.50;99.90;;;;;;5073148;28;20035;-69
2021/06/21 06:37:00;;;;;;;11.15;6.72;;;13.50;99.90;;;;;;5073468;28;20040;-69
2021/06/21 06:39:26;;;;;;;9.25;5.82;;;13.50;99.90;;;;;;5067544;28;20493;-69
2021/06/21 06:41:51;;;;;;;12.10;6.32;;;13.50;99.90;;;;;;5063795;28;20098;-69
2021/06/21 06:44:18;;;;;;;9.43;5.93;;;13.40;99.90;;;;;;5072942;28;20098;-69
2021/06/21 06:46:43;;;;;;;12.95;6.07;;;13.40;99.90;;;;;;5072121;28;20040;-69
2021/06/21 06:49:09;;;;;;;9.32;5.20;;;13.50;99.90;;;;;;5062329;28;20029;-69
2021/06/21 06:51:41;;;;;;;8.20;5.95;;;13.50;99.90;;;;;;5073354;28;20667;-69
2021/06/21 06:54:21;;;;;;;10.40;6.28;;;13.40;99.90;;;;;;5073259;28;20545;-69
2021/06/21 06:57:00;;;;;;;10.75;5.78;;;13.50;99.90;;;;;;5072745;28;20128;-69
2021/06/21 06:59:29;;;;;;;9.43;5.40;;;13.50;99.90;;;;;;5071469;28;20389;-69
2021/06/21 07:01:56;;;;;;;6.13;4.80;;;13.50;99.90;;;;;;5054562;28;20475;-69
2021/06/21 07:04:22;;;;;;;9.02;5.88;;;13.50;99.90;;;;;;5071607;28;20044;-69
2021/06/21 07:06:48;;;;;;;8.60;4.95;;;13.60;99.90;;;;;;5071079;28;20028;-69
2021/06/21 07:09:13;;;;;;;9.13;5.32;;;13.60;99.90;;;;;;5073410;22;20031;-71
2021/06/21 07:11:40;;;;;;;7.28;4.72;;;13.60;99.90;;;;;;5084646;28;20032;-71
2021/06/21 07:14:06;;;;;;;8.02;5.20;;;13.50;99.90;;;;;;5087146;28;20035;-71
2021/06/21 07:16:33;;;;;;;7.20;5.47;;;13.50;99.90;;;;;;5091004;28;20032;-72
2021/06/21 07:18:59;;;;;;;6.45;4.25;;;13.60;99.90;;;;;;5082401;28;20036;-71
2021/06/21 07:21:24;;;;;;;11.88;5.85;;;13.50;99.90;;;;;;5090427;28;20453;-72
2021/06/21 07:23:50;;;;;;;9.20;5.40;;;13.50;99.90;;;;;;5096016;28;20703;-72
2021/06/21 07:26:16;;;;;;;12.02;5.55;;;13.50;99.90;;;;;;5090922;28;20044;-71
2021/06/21 07:28:42;;;;;;;8.00;5.18;;;13.50;99.90;;;;;;5091524;28;20550;-71
2021/06/21 07:31:07;;;;;;;8.98;5.03;;;13.40;99.90;;;;;;5090925;28;20028;-72
2021/06/21 07:33:34;;;;;;;8.15;4.90;;;13.40;99.90;;;;;;5073318;28;20093;-72
2021/06/21 07:36:00;;;;;;;11.20;5.82;;;13.50;99.90;;;;;;5086183;28;20040;-71
2021/06/21 07:38:26;;;;;;;11.68;5.25;;;13.60;99.90;;;;;;5091425;28;20050;-71
2021/06/21 07:40:51;;;;;;;9.43;6.28;;;13.60;99.90;;;;;;5088443;28;20487;-71
2021/06/21 07:43:17;;;;;;;9.60;5.75;;;13.60;99.90;;;;;;5089275;28;20081;-71
2021/06/21 07:45:45;;;;;;;9.35;4.68;;;13.50;99.90;;;;;;5079812;28;20069;-71
2021/06/21 07:48:11;;;;;;;11.73;5.55;;;13.40;99.90;;;;;;5090437;28;20043;-70
2021/06/21 07:50:37;;;;;;;11.07;6.10;;;13.30;99.90;;;;;;5090955;28;20048;-70
2021/06/21 07:53:03;;;;;;;8.18;4.78;;;13.40;99.90;;;;;;5079356;28;20040;-70
2021/06/21 07:55:29;;;;;;;10.20;6.90;;;13.30;99.90;;;;;;5070925;28;20041;-69
2021/06/21 07:57:56;;;;;;;12.93;6.03;;;13.30;99.90;;;;;;5087393;28;20032;-68
2021/06/21 08:00:24;;;;;;;14.00;6.10;;;13.30;99.90;;;;;;5091083;28;20465;-69
2021/06/21 08:02:54;;;;;;;9.63;4.95;;;13.30;99.90;;;;;;5090621;28;20361;-68
2021/06/21 08:05:22;;;;;;;8.07;4.88;;;13.30;99.90;;;;;;5066326;28;20064;-67
2021/06/21 08:07:48;;;;;;;8.30;4.90;;;13.20;99.90;;;;;;5088970;28;20043;-67
2021/06/21 08:10:15;;;;;;;12.60;5.60;;;13.20;99.90;;;;;;5087627;28;20052;-67
2021/06/21 08:12:42;;;;;;;8.70;5.22;;;13.20;99.90;;;;;;5089464;28;20054;-68
2021/06/21 08:15:09;;;;;;;6.25;5.07;;;13.20;99.90;;;;;;5072955;28;20040;-68
2021/06/21 08:17:35;;;;;;;10.82;5.20;;;13.20;99.90;;;;;;5080136;28;20124;-68
2021/06/21 08:20:02;;;;;;;8.20;4.65;;;13.20;99.90;;;;;;5088991;28;20094;-68
2021/06/21 08:22:28;;;;;;;8.25;4.93;;;13.20;99.90;;;;;;5089807;28;20050;-67
2021/06/21 08:24:53;;;;;;;8.55;4.68;;;13.10;99.90;;;;;;5089513;28;20036;-67
2021/06/21 08:27:19;;;;;;;10.57;5.47;;;13.30;99.90;;;;;;5071856;28;20043;-68
2021/06/21 08:29:45;;;;;;;11.27;5.45;;;13.30;99.90;;;;;;5082135;28;20060;-68
2021/06/21 08:32:11;;;;;;;12.70;5.60;;;13.30;99.90;;;;;;5079360;28;20700;-68
2021/06/21 08:34:38;;;;;;;9.25;5.53;;;13.40;99.90;;;;;;5088520;28;20040;-68
2021/06/21 08:37:04;;;;;;;9.10;4.88;;;13.30;99.90;;;;;;5090024;28;20040;-67
2021/06/21 08:39:30;;;;;;;12.38;5.63;;;13.30;99.90;;;;;;5079763;28;20681;-68
2021/06/21 08:41:57;;;;;;;11.13;5.03;;;13.30;99.90;;;;;;5111862;28;20040;-68
2021/06/21 08:44:23;;;;;;;11.10;5.15;;;13.20;99.90;;;;;;5114997;28;20541;-68
2021/06/21 08:46:50;;;;;;;11.80;4.90;;;13.30;99.90;;;;;;5114873;28;20102;-68
2021/06/21 08:49:18;;;;;;;9.30;5.15;;;13.30;99.90;;;;;;5113976;28;20031;-68
2021/06/21 08:51:44;;;;;;;10.70;5.18;;;13.30;99.90;;;;;;5073213;28;20094;-68
2021/06/21 08:54:09;;;;;;;12.18;5.15;;;13.30;99.90;;;;;;5081793;28;20081;-69
2021/06/21 08:56:35;;;;;;;12.45;4.55;;;13.20;99.90;;;;;;5077601;28;20040;-68
2021/06/21 08:59:08;;;;;;;11.75;6.25;;;13.20;99.90;;;;;;5092464;28;20040;-68
2021/06/21 09:01:38;;;;;;;12.02;5.75;;;13.20;99.90;;;;;;5093116;28;20495;-68
2021/06/21 09:04:08;;;;;;;15.25;5.38;;;13.20;99.90;;;;;;5093371;28;20036;-68
2021/06/21 09:06:39;;;;;;;9.27;5.55;;;13.30;99.90;;;;;;5074970;28;20431;-68
2021/06/21 09:09:06;;;;;;;13.27;6.28;;;13.30;99.90;;;;;;5074069;28;20139;-68
2021/06/21 09:11:50;;;;;;;18.10;5.82;;;13.30;99.90;;;;;;5088363;28;20115;-68
2021/06/21 09:14:24;;;;;;;15.65;5.93;;;13.40;99.90;;;;;;5091104;28;20119;-68
2021/06/21 09:17:07;;;;;;;9.70;4.95;;;13.40;99.90;;;;;;5093631;28;20040;-68
2021/06/21 09:19:53;;;;;;;10.23;5.32;;;13.40;99.90;;;;;;5092778;28;20125;-69
2021/06/21 09:22:34;;;;;;;12.20;5.85;;;13.50;99.90;;;;;;5074965;28;20039;-68
2021/06/21 09:25:16;;;;;;;8.85;3.90;;;13.50;99.90;;;;;;5090087;28;20059;-71
2021/06/21 09:27:52;;;;;;;9.80;3.78;;;13.50;99.90;;;;;;5090728;28;20791;-71
2021/06/21 09:30:18;;;;;;;11.38;4.13;;;13.40;99.90;;;;;;5090643;28;20032;-72
2021/06/21 09:32:49;;;;;;;6.60;4.00;;;13.60;99.90;;;;;;5074302;28;20040;-72
2021/06/21 09:35:33;;;;;;;11.13;4.13;;;13.60;99.90;;;;;;5091594;28;20048;-72
2021/06/21 09:38:07;;;;;;;9.88;3.67;;;13.60;99.90;;;;;;5071929;28;20044;-72
2021/06/21 09:40:35;;;;;;;8.68;4.68;;;13.70;99.90;;;;;;5092706;28;20139;-73
2021/06/21 09:43:22;;;;;;;12.13;4.45;;;13.70;99.90;;;;;;5090666;28;20452;-73
2021/06/21 09:46:01;;;;;;;6.85;3.00;;;13.90;99.90;;;;;;5072073;28;20058;-73
2021/06/21 09:48:32;;;;;;;8.52;3.42;;;13.70;99.90;;;;;;5090015;28;20489;-72
2021/06/21 09:50:58;;;;;;;10.82;4.22;;;13.70;99.90;;;;;;5073716;28;20062;-73
2021/06/21 09:53:24;;;;;;;7.45;2.90;;;13.80;99.90;;;;;;5089401;28;20481;-72
2021/06/21 09:55:50;;;;;;;5.28;2.55;;;13.80;99.90;;;;;;5089062;28;20034;-73
2021/06/21 09:58:19;;;;;;;6.15;3.28;;;13.60;99.90;;;;;;5092568;28;20044;-73
2021/06/21 10:01:05;;;;;;;6.18;3.08;;;13.70;99.90;;;;;;5090145;28;20028;-74
2021/06/21 10:03:39;;;;;;;5.63;2.42;;;13.90;99.90;;;;;;5074161;28;20031;-73
2021/06/21 10:06:09;;;;;;;7.25;3.20;;;13.70;99.90;;;;;;5089905;28;20043;-73
2021/06/21 10:08:49;;;;;;;9.52;4.43;;;13.90;99.90;;;;;;5093029;28;20123;-74
2021/06/21 10:11:32;;;;;;;5.85;2.75;;;14.00;99.90;;;;;;5062521;28;20181;-75
2021/06/21 10:14:03;;;;;;;8.30;3.03;;;14.00;99.90;;;;;;5090948;28;20036;-74
2021/06/21 10:16:29;;;;;;;6.95;3.13;;;13.90;99.90;;;;;;5092146;28;20036;-72
2021/06/21 10:18:55;;;;;;;6.38;3.40;;;13.90;99.90;;;;;;5092227;28;20047;-72
2021/06/21 10:21:22;;;;;;;6.30;2.97;;;14.00;99.90;;;;;;5088665;28;20032;-72
2021/06/21 10:23:48;;;;;;;7.32;3.17;;;14.00;99.90;;;;;;5075509;28;20032;-72
2021/06/21 10:26:14;;;;;;;5.07;2.60;;;14.00;99.90;;;;;;5084502;28;20077;-74
2021/06/21 10:28:40;;;;;;;6.55;3.03;;;13.90;99.90;;;;;;5091224;28;20032;-74
2021/06/21 10:31:06;;;;;;;5.72;3.00;;;14.10;99.90;;;;;;5091417;28;20047;-74
2021/06/21 10:33:33;;;;;;;7.50;3.50;;;14.00;99.90;;;;;;5090337;28;20089;-74
2021/06/21 10:36:01;;;;;;;6.78;2.78;;;14.00;99.90;;;;;;5072602;28;20040;-74
2021/06/21 10:38:27;;;;;;;7.38;3.70;;;14.00;99.90;;;;;;5091557;28;20044;-74
2021/06/21 10:41:10;;;;;;;7.93;3.10;;;14.00;99.90;;;;;;5072196;28;20036;-73
2021/06/21 10:43:45;;;;;;;6.93;3.30;;;13.90;99.90;;;;;;5092082;28;20044;-74
2021/06/21 10:46:14;;;;;;;5.97;3.28;;;14.00;99.90;;;;;;5092466;28;20031;-74
2021/06/21 10:48:59;;;;;;;6.40;3.40;;;14.00;99.90;;;;;;5087684;28;20098;-73
2021/06/21 10:51:33;;;;;;;8.98;3.75;;;14.10;99.90;;;;;;5074059;28;20036;-73
2021/06/21 10:53:59;;;;;;;7.03;3.35;;;14.10;99.90;;;;;;5078731;28;20044;-73
2021/06/21 10:56:42;;;;;;;9.40;3.08;;;14.00;99.90;;;;;;5091289;28;20047;-72
2021/06/21 10:59:12;;;;;;;8.00;3.55;;;14.10;99.90;;;;;;5089287;28;20044;-73
2021/06/21 11:01:49;;;;;;;6.97;3.00;;;14.10;99.90;;;;;;5090595;28;20043;-73
2021/06/21 11:04:37;;;;;;;7.00;2.60;;;14.00;99.90;;;;;;5071703;28;20670;-73
2021/06/21 11:07:10;;;;;;;6.15;3.13;;;14.00;99.90;;;;;;5053414;28;20041;-73
2021/06/21 11:09:41;;;;;;;7.93;3.20;;;14.00;99.90;;;;;;5053159;28;20056;-73
2021/06/21 11:12:21;;;;;;;6.60;3.17;;;14.10;99.90;;;;;;5087691;28;20071;-73
2021/06/21 11:15:09;;;;;;;7.78;3.70;;;14.10;99.90;;;;;;5090497;28;20028;-73
2021/06/21 11:17:49;;;;;;;5.03;3.00;;;14.10;99.90;;;;;;5091772;28;20062;-73
2021/06/21 11:20:32;;;;;;;9.40;3.30;;;14.20;99.90;;;;;;5072779;28;20047;-72
2021/06/21 11:23:00;;;;;;;7.45;3.15;;;14.30;99.90;;;;;;5089002;28;20081;-72
2021/06/21 11:25:30;;;;;;;7.55;3.30;;;14.40;99.90;;;;;;5093232;28;20121;-72
2021/06/21 11:27:56;;;;;;;7.15;3.20;;;14.50;99.90;;;;;;5091799;28;20444;-72
2021/06/21 11:30:25;;;;;;;8.27;3.10;;;14.50;99.90;;;;;;5092004;28;20115;-71
2021/06/21 11:33:02;;;;;;;5.43;3.22;;;14.60;99.90;;;;;;5074070;28;20062;-72
2021/06/21 11:35:55;;;;;;;7.88;3.33;;;14.60;99.90;;;;;;5090320;28;20044;-70
2021/06/21 11:38:21;;;;;;;4.38;2.17;;;14.60;99.90;;;;;;5091068;28;20119;-70
2021/06/21 11:40:47;;;;;;;4.72;2.38;;;14.50;99.90;;;;;;5090816;28;20437;-70
2021/06/21 11:43:16;;;;;;;6.57;2.92;;;14.40;99.90;;;;;;5090992;28;20048;-70
2021/06/21 11:45:51;;;;;;;6.90;2.72;;;14.40;99.90;;;;;;5091281;28;20507;-70
2021/06/21 11:48:36;;;;;;;5.68;2.60;;;14.30;99.90;;;;;;5088677;28;20036;-70
2021/06/21 11:51:13;;;;;;;5.65;3.38;;;14.20;99.90;;;;;;5088578;28;20044;-70
2021/06/21 11:53:47;;;;;;;7.85;2.90;;;14.10;99.90;;;;;;5055026;28;20120;-70
2021/06/21 11:56:23;;;;;;;6.57;2.83;;;14.10;99.90;;;;;;5088706;28;20032;-70
2021/06/21 11:58:50;;;;;;;6.50;2.78;;;14.20;99.90;;;;;;5091166;28;20119;-70
2021/06/21 12:01:17;;;;;;;5.45;2.97;;;14.30;99.90;;;;;;5069376;28;20028;-70
2021/06/21 12:03:44;;;;;;;5.47;2.40;;;14.20;99.90;;;;;;5090070;28;20122;-69
2021/06/21 12:06:17;;;;;;;5.70;2.50;;;14.20;99.90;;;;;;5090249;28;20065;-69
2021/06/21 12:08:44;;;;;;;6.38;2.88;;;14.30;99.90;;;;;;5087256;28;20024;-70
2021/06/21 12:11:22;;;;;;;5.85;3.10;;;14.30;99.90;;;;;;5087736;28;20044;-70
2021/06/21 12:14:01;;;;;;;4.95;2.40;;;14.50;99.90;;;;;;5088603;28;20425;-70
2021/06/21 12:16:30;;;;;;;5.32;2.22;;;14.50;99.90;;;;;;5089712;28;20450;-68
2021/06/21 12:18:58;;;;;;;5.95;2.40;;;14.50;99.90;;;;;;5089395;28;20036;-70
2021/06/21 12:21:50;;;;;;;5.88;2.78;;;14.60;99.90;;;;;;5089299;28;20036;-70
2021/06/21 12:24:21;;;;;;;4.68;2.40;;;14.50;99.90;;;;;;5083314;28;20063;-70
2021/06/21 12:26:49;;;;;;;5.07;2.50;;;14.50;99.90;;;;;;5089033;28;20546;-69
2021/06/21 12:29:20;;;;;;;4.03;2.22;;;14.50;99.90;;;;;;5089403;28;20619;-70
2021/06/21 12:32:01;;;;;;;5.07;2.70;;;14.60;99.90;;;;;;5089509;28;20043;-70
2021/06/21 12:34:44;;;;;;;3.95;2.15;;;14.60;99.90;;;;;;5089737;28;20040;-70
2021/06/21 12:37:23;;;;;;;7.30;2.20;;;14.60;99.90;;;;;;5088813;28;20048;-69
2021/06/21 12:39:52;;;;;;;6.15;2.20;;;14.60;99.90;;;;;;5090404;28;20069;-70
2021/06/21 12:42:19;;;;;;;5.25;1.92;;;14.70;99.90;;;;;;5090684;28;20047;-70
2021/06/21 12:44:47;;;;;;;4.25;1.70;;;14.70;99.90;;;;;;5090723;28;20406;-70
2021/06/21 12:47:18;;;;;;;3.95;2.00;;;14.80;99.90;;;;;;5086207;28;20067;-70
2021/06/21 12:49:45;;;;;;;2.97;1.88;;;14.80;99.90;;;;;;5072164;28;20032;-71
2021/06/21 12:52:10;;;;;;;2.95;1.92;;;14.80;99.90;;;;;;5084509;28;20532;-70
2021/06/21 12:54:37;;;;;;;5.18;2.40;;;14.60;99.90;;;;;;5069419;28;20036;-71